SBPA/POA METAR and TAF weather

Enter ICAO airport designator
Station Type Date Time Source
SBPA METAR 2020/09/23 20:00 UTC NOAA

SBPA 232000Z VRB02KT CAVOK 27/13 Q1020


Station Type Date Time Source
SBPA Decoded METAR 2020/09/23 20:00 UTC NOAA

Porto Alegre Aero-Porto , Brazil (SBPA) 30-00S 051-11W 3M
Sep 23, 2020 - 04:00 PM EDT / 2020.09.23 2000 UTC
Wind: Variable at 2 MPH (2 KT):0
Visibility: greater than 7 mile(s):0
Temperature: 80 F (27 C)
Dew Point: 55 F (13 C)
Relative Humidity: 41%
Pressure (altimeter): 30.12 in. Hg (1020 hPa)
ob: SBPA 232000Z VRB02KT CAVOK 27/13 Q1020
cycle: 20

Station Type Date Time Source
SBPA TAF 2020/09/23 18:24 UTC NOAA

TAF SBPA 231500Z 2318/2418 11007KT CAVOK TX26/2318Z TN14/2408Z
RMK PDZ

Example: see airport list